sensor_id;sensor_type;location;lat;lon;timestamp;P1;durP1;ratioP1;P2;durP2;ratioP2
39400;SDS011;54391;50.000;7.360;2022-07-06T00:00:33;6.60;;;3.55;;
39400;SDS011;54391;50.000;7.360;2022-07-06T00:03:00;4.70;;;3.40;;
39400;SDS011;54391;50.000;7.360;2022-07-06T00:05:28;5.03;;;2.88;;
39400;SDS011;54391;50.000;7.360;2022-07-06T00:07:55;5.88;;;3.22;;
39400;SDS011;54391;50.000;7.360;2022-07-06T00:10:23;4.07;;;2.63;;
39400;SDS011;54391;50.000;7.360;2022-07-06T00:12:50;5.93;;;2.67;;
39400;SDS011;54391;50.000;7.360;2022-07-06T00:15:19;5.13;;;2.80;;
39400;SDS011;54391;50.000;7.360;2022-07-06T00:17:47;4.57;;;2.75;;
39400;SDS011;54391;50.000;7.360;2022-07-06T00:20:14;6.70;;;3.05;;
39400;SDS011;54391;50.000;7.360;2022-07-06T00:22:42;5.60;;;2.95;;
39400;SDS011;54391;50.000;7.360;2022-07-06T00:25:09;6.65;;;3.15;;
39400;SDS011;54391;50.000;7.360;2022-07-06T00:27:37;3.63;;;2.50;;
39400;SDS011;54391;50.000;7.360;2022-07-06T00:30:05;4.95;;;3.00;;
39400;SDS011;54391;50.000;7.360;2022-07-06T00:32:35;11.68;;;2.78;;
39400;SDS011;54391;50.000;7.360;2022-07-06T00:35:02;4.90;;;2.78;;
39400;SDS011;54391;50.000;7.360;2022-07-06T00:37:30;13.82;;;4.93;;
39400;SDS011;54391;50.000;7.360;2022-07-06T00:39:58;8.55;;;3.45;;
39400;SDS011;54391;50.000;7.360;2022-07-06T00:42:27;6.32;;;2.97;;
39400;SDS011;54391;50.000;7.360;2022-07-06T00:44:54;6.15;;;2.53;;
39400;SDS011;54391;50.000;7.360;2022-07-06T00:47:22;8.07;;;3.30;;
39400;SDS011;54391;50.000;7.360;2022-07-06T00:49:51;5.13;;;2.90;;
39400;SDS011;54391;50.000;7.360;2022-07-06T00:52:36;6.85;;;3.03;;
39400;SDS011;54391;50.000;7.360;2022-07-06T00:55:03;8.45;;;3.10;;
39400;SDS011;54391;50.000;7.360;2022-07-06T00:57:31;4.03;;;2.97;;
39400;SDS011;54391;50.000;7.360;2022-07-06T00:59:59;3.33;;;2.40;;
39400;SDS011;54391;50.000;7.360;2022-07-06T01:02:30;4.00;;;2.40;;
39400;SDS011;54391;50.000;7.360;2022-07-06T01:04:59;3.45;;;2.63;;
39400;SDS011;54391;50.000;7.360;2022-07-06T01:07:28;6.25;;;2.50;;
39400;SDS011;54391;50.000;7.360;2022-07-06T01:09:56;4.25;;;2.60;;
39400;SDS011;54391;50.000;7.360;2022-07-06T01:12:23;7.60;;;2.53;;
39400;SDS011;54391;50.000;7.360;2022-07-06T01:14:52;7.20;;;3.17;;
39400;SDS011;54391;50.000;7.360;2022-07-06T01:17:20;7.80;;;2.90;;
39400;SDS011;54391;50.000;7.360;2022-07-06T01:19:48;9.48;;;2.92;;
39400;SDS011;54391;50.000;7.360;2022-07-06T01:22:18;6.65;;;2.83;;
39400;SDS011;54391;50.000;7.360;2022-07-06T01:24:46;4.65;;;3.13;;
39400;SDS011;54391;50.000;7.360;2022-07-06T01:27:17;5.07;;;3.05;;
39400;SDS011;54391;50.000;7.360;2022-07-06T01:29:45;5.38;;;2.95;;
39400;SDS011;54391;50.000;7.360;2022-07-06T01:32:13;13.27;;;3.00;;
39400;SDS011;54391;50.000;7.360;2022-07-06T01:34:41;9.13;;;3.00;;
39400;SDS011;54391;50.000;7.360;2022-07-06T01:37:09;7.65;;;2.42;;
39400;SDS011;54391;50.000;7.360;2022-07-06T01:39:38;3.92;;;2.72;;
39400;SDS011;54391;50.000;7.360;2022-07-06T01:42:06;9.45;;;3.03;;
39400;SDS011;54391;50.000;7.360;2022-07-06T01:44:34;5.05;;;2.67;;
39400;SDS011;54391;50.000;7.360;2022-07-06T01:47:01;7.80;;;2.45;;
39400;SDS011;54391;50.000;7.360;2022-07-06T01:49:30;5.88;;;2.28;;
39400;SDS011;54391;50.000;7.360;2022-07-06T01:51:57;4.72;;;2.30;;
39400;SDS011;54391;50.000;7.360;2022-07-06T01:54:25;3.83;;;2.70;;
39400;SDS011;54391;50.000;7.360;2022-07-06T01:56:54;4.78;;;2.70;;
39400;SDS011;54391;50.000;7.360;2022-07-06T01:59:22;4.47;;;2.58;;
39400;SDS011;54391;50.000;7.360;2022-07-06T02:01:50;6.53;;;2.60;;
39400;SDS011;54391;50.000;7.360;2022-07-06T02:04:19;7.18;;;2.40;;
39400;SDS011;54391;50.000;7.360;2022-07-06T02:06:47;3.83;;;2.50;;
39400;SDS011;54391;50.000;7.360;2022-07-06T02:09:15;5.70;;;2.72;;
39400;SDS011;54391;50.000;7.360;2022-07-06T02:11:42;7.50;;;2.80;;
39400;SDS011;54391;50.000;7.360;2022-07-06T02:14:12;6.68;;;2.60;;
39400;SDS011;54391;50.000;7.360;2022-07-06T02:16:40;5.30;;;2.28;;
39400;SDS011;54391;50.000;7.360;2022-07-06T02:19:08;6.03;;;2.40;;
39400;SDS011;54391;50.000;7.360;2022-07-06T02:21:35;5.38;;;2.22;;
39400;SDS011;54391;50.000;7.360;2022-07-06T02:24:03;4.75;;;2.65;;
39400;SDS011;54391;50.000;7.360;2022-07-06T02:26:31;4.25;;;2.47;;
39400;SDS011;54391;50.000;7.360;2022-07-06T02:28:59;6.85;;;2.88;;
39400;SDS011;54391;50.000;7.360;2022-07-06T02:31:29;5.40;;;2.45;;
39400;SDS011;54391;50.000;7.360;2022-07-06T02:33:57;5.40;;;2.28;;
39400;SDS011;54391;50.000;7.360;2022-07-06T02:36:25;4.93;;;2.17;;
39400;SDS011;54391;50.000;7.360;2022-07-06T02:38:53;3.88;;;2.50;;
39400;SDS011;54391;50.000;7.360;2022-07-06T02:41:21;3.35;;;2.63;;
39400;SDS011;54391;50.000;7.360;2022-07-06T02:43:48;6.00;;;2.63;;
39400;SDS011;54391;50.000;7.360;2022-07-06T02:46:16;5.55;;;2.78;;
39400;SDS011;54391;50.000;7.360;2022-07-06T02:48:46;3.80;;;2.97;;
39400;SDS011;54391;50.000;7.360;2022-07-06T02:51:14;3.70;;;2.60;;
39400;SDS011;54391;50.000;7.360;2022-07-06T02:53:41;3.45;;;2.70;;
39400;SDS011;54391;50.000;7.360;2022-07-06T02:56:09;6.70;;;2.58;;
39400;SDS011;54391;50.000;7.360;2022-07-06T02:58:39;8.50;;;2.80;;
39400;SDS011;54391;50.000;7.360;2022-07-06T03:01:07;6.03;;;2.17;;
39400;SDS011;54391;50.000;7.360;2022-07-06T03:03:35;3.53;;;2.60;;
39400;SDS011;54391;50.000;7.360;2022-07-06T03:06:05;4.15;;;2.25;;
39400;SDS011;54391;50.000;7.360;2022-07-06T03:08:33;3.60;;;2.50;;
39400;SDS011;54391;50.000;7.360;2022-07-06T03:11:01;3.95;;;2.50;;
39400;SDS011;54391;50.000;7.360;2022-07-06T03:13:29;3.42;;;1.92;;
39400;SDS011;54391;50.000;7.360;2022-07-06T03:15:56;5.63;;;2.33;;
39400;SDS011;54391;50.000;7.360;2022-07-06T03:18:24;4.50;;;2.00;;
39400;SDS011;54391;50.000;7.360;2022-07-06T03:20:52;4.63;;;2.45;;
39400;SDS011;54391;50.000;7.360;2022-07-06T03:23:21;3.22;;;1.92;;
39400;SDS011;54391;50.000;7.360;2022-07-06T03:25:50;4.45;;;2.08;;
39400;SDS011;54391;50.000;7.360;2022-07-06T03:28:17;5.22;;;2.10;;
39400;SDS011;54391;50.000;7.360;2022-07-06T03:30:45;4.18;;;2.40;;
39400;SDS011;54391;50.000;7.360;2022-07-06T03:33:13;6.13;;;2.10;;
39400;SDS011;54391;50.000;7.360;2022-07-06T03:35:41;3.40;;;2.08;;
39400;SDS011;54391;50.000;7.360;2022-07-06T03:38:10;6.00;;;2.72;;
39400;SDS011;54391;50.000;7.360;2022-07-06T03:40:41;6.63;;;3.20;;
39400;SDS011;54391;50.000;7.360;2022-07-06T03:43:10;4.32;;;2.13;;
39400;SDS011;54391;50.000;7.360;2022-07-06T03:45:38;4.32;;;2.17;;
39400;SDS011;54391;50.000;7.360;2022-07-06T03:48:07;6.13;;;2.40;;
39400;SDS011;54391;50.000;7.360;2022-07-06T03:50:37;4.65;;;2.03;;
39400;SDS011;54391;50.000;7.360;2022-07-06T03:53:04;4.82;;;2.20;;
39400;SDS011;54391;50.000;7.360;2022-07-06T03:55:33;5.68;;;2.38;;
39400;SDS011;54391;50.000;7.360;2022-07-06T03:58:06;5.05;;;2.20;;
39400;SDS011;54391;50.000;7.360;2022-07-06T04:00:36;5.00;;;2.22;;
39400;SDS011;54391;50.000;7.360;2022-07-06T04:03:08;6.38;;;2.85;;
39400;SDS011;54391;50.000;7.360;2022-07-06T04:05:44;4.00;;;2.55;;
39400;SDS011;54391;50.000;7.360;2022-07-06T04:08:12;8.88;;;2.45;;
39400;SDS011;54391;50.000;7.360;2022-07-06T04:10:46;5.25;;;2.75;;
39400;SDS011;54391;50.000;7.360;2022-07-06T04:13:15;8.30;;;2.50;;
39400;SDS011;54391;50.000;7.360;2022-07-06T04:15:42;7.82;;;2.85;;
39400;SDS011;54391;50.000;7.360;2022-07-06T04:18:11;5.93;;;2.28;;
39400;SDS011;54391;50.000;7.360;2022-07-06T04:20:47;4.72;;;2.13;;
39400;SDS011;54391;50.000;7.360;2022-07-06T04:23:15;5.82;;;2.50;;
39400;SDS011;54391;50.000;7.360;2022-07-06T04:25:42;4.72;;;2.55;;
39400;SDS011;54391;50.000;7.360;2022-07-06T04:28:11;5.38;;;2.20;;
39400;SDS011;54391;50.000;7.360;2022-07-06T04:30:40;6.10;;;2.72;;
39400;SDS011;54391;50.000;7.360;2022-07-06T04:33:11;6.85;;;2.25;;
39400;SDS011;54391;50.000;7.360;2022-07-06T04:35:41;6.07;;;2.28;;
39400;SDS011;54391;50.000;7.360;2022-07-06T04:38:09;4.78;;;2.20;;
39400;SDS011;54391;50.000;7.360;2022-07-06T04:40:38;6.40;;;3.00;;
39400;SDS011;54391;50.000;7.360;2022-07-06T04:43:09;5.15;;;2.50;;
39400;SDS011;54391;50.000;7.360;2022-07-06T04:45:37;6.03;;;2.60;;
39400;SDS011;54391;50.000;7.360;2022-07-06T04:48:06;3.65;;;2.25;;
39400;SDS011;54391;50.000;7.360;2022-07-06T04:50:35;3.08;;;2.22;;
39400;SDS011;54391;50.000;7.360;2022-07-06T04:53:05;4.85;;;2.28;;
39400;SDS011;54391;50.000;7.360;2022-07-06T04:55:34;5.80;;;2.90;;
39400;SDS011;54391;50.000;7.360;2022-07-06T04:58:02;7.75;;;3.38;;
39400;SDS011;54391;50.000;7.360;2022-07-06T05:00:30;5.65;;;2.90;;
39400;SDS011;54391;50.000;7.360;2022-07-06T05:02:58;5.40;;;2.22;;
39400;SDS011;54391;50.000;7.360;2022-07-06T05:05:28;5.40;;;2.55;;
39400;SDS011;54391;50.000;7.360;2022-07-06T05:07:56;5.60;;;2.65;;
39400;SDS011;54391;50.000;7.360;2022-07-06T05:10:24;5.13;;;2.58;;
39400;SDS011;54391;50.000;7.360;2022-07-06T05:12:54;3.03;;;2.10;;
39400;SDS011;54391;50.000;7.360;2022-07-06T05:15:23;6.40;;;2.47;;
39400;SDS011;54391;50.000;7.360;2022-07-06T05:17:50;5.97;;;2.65;;
39400;SDS011;54391;50.000;7.360;2022-07-06T05:20:18;4.50;;;2.85;;
39400;SDS011;54391;50.000;7.360;2022-07-06T05:22:49;4.28;;;2.67;;
39400;SDS011;54391;50.000;7.360;2022-07-06T05:25:21;4.85;;;2.70;;
39400;SDS011;54391;50.000;7.360;2022-07-06T05:27:48;8.52;;;2.60;;
39400;SDS011;54391;50.000;7.360;2022-07-06T05:30:16;4.70;;;2.53;;
39400;SDS011;54391;50.000;7.360;2022-07-06T05:32:45;4.85;;;2.80;;
39400;SDS011;54391;50.000;7.360;2022-07-06T05:35:12;4.75;;;3.00;;
39400;SDS011;54391;50.000;7.360;2022-07-06T05:37:40;7.20;;;3.20;;
39400;SDS011;54391;50.000;7.360;2022-07-06T05:40:10;6.93;;;3.00;;
39400;SDS011;54391;50.000;7.360;2022-07-06T05:42:39;6.30;;;2.55;;
39400;SDS011;54391;50.000;7.360;2022-07-06T05:45:07;4.43;;;2.83;;
39400;SDS011;54391;50.000;7.360;2022-07-06T05:47:35;5.32;;;2.80;;
39400;SDS011;54391;50.000;7.360;2022-07-06T05:50:20;5.20;;;3.03;;
39400;SDS011;54391;50.000;7.360;2022-07-06T05:52:55;5.72;;;2.40;;
39400;SDS011;54391;50.000;7.360;2022-07-06T05:55:25;5.05;;;2.70;;
39400;SDS011;54391;50.000;7.360;2022-07-06T05:57:55;5.47;;;2.55;;
39400;SDS011;54391;50.000;7.360;2022-07-06T06:00:24;4.55;;;2.60;;
39400;SDS011;54391;50.000;7.360;2022-07-06T06:02:57;3.08;;;1.83;;
39400;SDS011;54391;50.000;7.360;2022-07-06T06:05:25;4.68;;;2.58;;
39400;SDS011;54391;50.000;7.360;2022-07-06T06:07:57;4.78;;;2.42;;
39400;SDS011;54391;50.000;7.360;2022-07-06T06:10:29;7.40;;;2.50;;
39400;SDS011;54391;50.000;7.360;2022-07-06T06:13:00;4.40;;;3.03;;
39400;SDS011;54391;50.000;7.360;2022-07-06T06:15:29;8.10;;;2.92;;
39400;SDS011;54391;50.000;7.360;2022-07-06T06:17:57;5.07;;;2.97;;
39400;SDS011;54391;50.000;7.360;2022-07-06T06:20:25;5.05;;;3.25;;
39400;SDS011;54391;50.000;7.360;2022-07-06T06:22:53;5.47;;;2.88;;
39400;SDS011;54391;50.000;7.360;2022-07-06T06:25:26;5.18;;;3.15;;
39400;SDS011;54391;50.000;7.360;2022-07-06T06:27:56;7.90;;;3.25;;
39400;SDS011;54391;50.000;7.360;2022-07-06T06:30:24;6.18;;;3.03;;
39400;SDS011;54391;50.000;7.360;2022-07-06T06:32:51;5.53;;;3.38;;
39400;SDS011;54391;50.000;7.360;2022-07-06T06:35:29;4.60;;;3.42;;
39400;SDS011;54391;50.000;7.360;2022-07-06T06:37:57;4.10;;;2.92;;
39400;SDS011;54391;50.000;7.360;2022-07-06T06:40:24;6.30;;;3.60;;
39400;SDS011;54391;50.000;7.360;2022-07-06T06:42:52;6.80;;;3.60;;
39400;SDS011;54391;50.000;7.360;2022-07-06T06:45:21;7.38;;;3.67;;
39400;SDS011;54391;50.000;7.360;2022-07-06T06:47:48;6.57;;;3.72;;
39400;SDS011;54391;50.000;7.360;2022-07-06T06:50:15;8.63;;;4.47;;
39400;SDS011;54391;50.000;7.360;2022-07-06T06:52:43;8.45;;;3.80;;
39400;SDS011;54391;50.000;7.360;2022-07-06T06:55:10;8.50;;;3.88;;
39400;SDS011;54391;50.000;7.360;2022-07-06T06:57:38;6.47;;;3.28;;
39400;SDS011;54391;50.000;7.360;2022-07-06T07:00:06;5.68;;;3.50;;
39400;SDS011;54391;50.000;7.360;2022-07-06T07:02:35;5.95;;;3.47;;
39400;SDS011;54391;50.000;7.360;2022-07-06T07:05:04;5.00;;;3.30;;
39400;SDS011;54391;50.000;7.360;2022-07-06T07:07:32;6.30;;;3.17;;
39400;SDS011;54391;50.000;7.360;2022-07-06T07:10:02;4.90;;;3.08;;
39400;SDS011;54391;50.000;7.360;2022-07-06T07:12:30;6.43;;;3.05;;
39400;SDS011;54391;50.000;7.360;2022-07-06T07:14:58;4.60;;;2.53;;
39400;SDS011;54391;50.000;7.360;2022-07-06T07:17:27;3.78;;;2.33;;
39400;SDS011;54391;50.000;7.360;2022-07-06T07:19:56;5.55;;;2.03;;
39400;SDS011;54391;50.000;7.360;2022-07-06T07:22:23;3.33;;;2.22;;
39400;SDS011;54391;50.000;7.360;2022-07-06T07:24:51;4.93;;;2.50;;
39400;SDS011;54391;50.000;7.360;2022-07-06T07:27:18;4.43;;;2.83;;
39400;SDS011;54391;50.000;7.360;2022-07-06T07:29:46;5.55;;;2.13;;
39400;SDS011;54391;50.000;7.360;2022-07-06T07:32:16;5.13;;;2.58;;
39400;SDS011;54391;50.000;7.360;2022-07-06T07:34:44;4.60;;;2.72;;
39400;SDS011;54391;50.000;7.360;2022-07-06T07:37:12;11.90;;;3.42;;
39400;SDS011;54391;50.000;7.360;2022-07-06T07:39:40;5.85;;;3.53;;
39400;SDS011;54391;50.000;7.360;2022-07-06T07:42:07;5.57;;;3.60;;
39400;SDS011;54391;50.000;7.360;2022-07-06T07:44:35;6.47;;;3.05;;
39400;SDS011;54391;50.000;7.360;2022-07-06T07:47:04;3.85;;;2.47;;
39400;SDS011;54391;50.000;7.360;2022-07-06T07:49:31;4.75;;;2.92;;
39400;SDS011;54391;50.000;7.360;2022-07-06T07:51:59;5.82;;;3.28;;
39400;SDS011;54391;50.000;7.360;2022-07-06T07:54:30;5.65;;;3.35;;
39400;SDS011;54391;50.000;7.360;2022-07-06T07:56:58;7.70;;;3.83;;
39400;SDS011;54391;50.000;7.360;2022-07-06T07:59:27;6.55;;;3.30;;
39400;SDS011;54391;50.000;7.360;2022-07-06T08:01:55;8.27;;;4.25;;
39400;SDS011;54391;50.000;7.360;2022-07-06T08:04:22;5.40;;;3.67;;
39400;SDS011;54391;50.000;7.360;2022-07-06T08:06:50;6.18;;;3.97;;
39400;SDS011;54391;50.000;7.360;2022-07-06T08:09:17;5.43;;;4.00;;
39400;SDS011;54391;50.000;7.360;2022-07-06T08:11:46;8.13;;;4.32;;
39400;SDS011;54391;50.000;7.360;2022-07-06T08:14:13;9.10;;;3.40;;
39400;SDS011;54391;50.000;7.360;2022-07-06T08:16:42;4.57;;;2.65;;
39400;SDS011;54391;50.000;7.360;2022-07-06T08:19:10;4.72;;;3.17;;
39400;SDS011;54391;50.000;7.360;2022-07-06T08:21:40;6.57;;;2.53;;
39400;SDS011;54391;50.000;7.360;2022-07-06T08:24:08;5.50;;;2.97;;
39400;SDS011;54391;50.000;7.360;2022-07-06T08:26:36;5.38;;;2.75;;
39400;SDS011;54391;50.000;7.360;2022-07-06T08:29:05;5.00;;;2.83;;
39400;SDS011;54391;50.000;7.360;2022-07-06T08:31:32;6.22;;;3.35;;
39400;SDS011;54391;50.000;7.360;2022-07-06T08:34:00;6.03;;;3.55;;
39400;SDS011;54391;50.000;7.360;2022-07-06T08:36:28;6.47;;;2.65;;
39400;SDS011;54391;50.000;7.360;2022-07-06T08:38:55;3.28;;;2.10;;
39400;SDS011;54391;50.000;7.360;2022-07-06T08:41:24;3.63;;;2.00;;
39400;SDS011;54391;50.000;7.360;2022-07-06T08:43:53;3.72;;;2.45;;
39400;SDS011;54391;50.000;7.360;2022-07-06T08:46:22;5.60;;;3.03;;
39400;SDS011;54391;50.000;7.360;2022-07-06T08:48:49;3.83;;;2.50;;
39400;SDS011;54391;50.000;7.360;2022-07-06T08:51:19;5.15;;;2.40;;
39400;SDS011;54391;50.000;7.360;2022-07-06T08:53:48;5.68;;;2.05;;
39400;SDS011;54391;50.000;7.360;2022-07-06T08:56:18;4.45;;;2.42;;
39400;SDS011;54391;50.000;7.360;2022-07-06T08:58:45;5.85;;;2.40;;
39400;SDS011;54391;50.000;7.360;2022-07-06T09:01:13;5.68;;;2.28;;
39400;SDS011;54391;50.000;7.360;2022-07-06T09:03:43;4.55;;;2.53;;
39400;SDS011;54391;50.000;7.360;2022-07-06T09:06:15;4.00;;;2.58;;
39400;SDS011;54391;50.000;7.360;2022-07-06T09:08:46;6.10;;;3.47;;
39400;SDS011;54391;50.000;7.360;2022-07-06T09:11:15;4.13;;;2.60;;
39400;SDS011;54391;50.000;7.360;2022-07-06T09:13:43;8.50;;;2.95;;
39400;SDS011;54391;50.000;7.360;2022-07-06T09:16:11;3.38;;;2.13;;
39400;SDS011;54391;50.000;7.360;2022-07-06T09:18:41;5.30;;;2.60;;
39400;SDS011;54391;50.000;7.360;2022-07-06T09:21:12;4.10;;;2.00;;
39400;SDS011;54391;50.000;7.360;2022-07-06T09:23:52;5.18;;;2.25;;
39400;SDS011;54391;50.000;7.360;2022-07-06T09:26:21;4.60;;;2.67;;
39400;SDS011;54391;50.000;7.360;2022-07-06T09:28:48;4.80;;;2.25;;
39400;SDS011;54391;50.000;7.360;2022-07-06T09:31:16;7.90;;;2.25;;
39400;SDS011;54391;50.000;7.360;2022-07-06T09:33:55;3.25;;;1.83;;
39400;SDS011;54391;50.000;7.360;2022-07-06T09:36:38;2.63;;;1.80;;
39400;SDS011;54391;50.000;7.360;2022-07-06T09:39:19;4.50;;;1.80;;
39400;SDS011;54391;50.000;7.360;2022-07-06T09:41:49;4.32;;;1.73;;
39400;SDS011;54391;50.000;7.360;2022-07-06T09:44:21;3.83;;;1.15;;
39400;SDS011;54391;50.000;7.360;2022-07-06T09:46:50;2.35;;;1.30;;
39400;SDS011;54391;50.000;7.360;2022-07-06T09:49:20;4.68;;;1.90;;
39400;SDS011;54391;50.000;7.360;2022-07-06T09:51:49;4.43;;;2.20;;
39400;SDS011;54391;50.000;7.360;2022-07-06T09:54:18;9.35;;;1.15;;
39400;SDS011;54391;50.000;7.360;2022-07-06T09:56:46;2.00;;;1.30;;
39400;SDS011;54391;50.000;7.360;2022-07-06T09:59:17;3.70;;;1.30;;
39400;SDS011;54391;50.000;7.360;2022-07-06T10:01:46;5.20;;;1.70;;
39400;SDS011;54391;50.000;7.360;2022-07-06T10:04:17;3.83;;;1.65;;
39400;SDS011;54391;50.000;7.360;2022-07-06T10:06:47;2.67;;;1.42;;
39400;SDS011;54391;50.000;7.360;2022-07-06T10:09:15;3.00;;;1.23;;
39400;SDS011;54391;50.000;7.360;2022-07-06T10:11:47;3.22;;;1.58;;
39400;SDS011;54391;50.000;7.360;2022-07-06T10:14:17;2.92;;;1.45;;
39400;SDS011;54391;50.000;7.360;2022-07-06T10:16:47;3.38;;;1.90;;
39400;SDS011;54391;50.000;7.360;2022-07-06T10:19:15;3.80;;;2.03;;
39400;SDS011;54391;50.000;7.360;2022-07-06T10:21:44;13.55;;;7.03;;
39400;SDS011;54391;50.000;7.360;2022-07-06T10:24:13;5.18;;;2.13;;
39400;SDS011;54391;50.000;7.360;2022-07-06T10:26:41;4.85;;;2.67;;
39400;SDS011;54391;50.000;7.360;2022-07-06T10:29:09;7.13;;;4.25;;
39400;SDS011;54391;50.000;7.360;2022-07-06T10:31:38;4.60;;;1.80;;
39400;SDS011;54391;50.000;7.360;2022-07-06T10:34:09;4.00;;;2.03;;
39400;SDS011;54391;50.000;7.360;2022-07-06T10:36:39;4.30;;;2.30;;
39400;SDS011;54391;50.000;7.360;2022-07-06T10:39:09;4.15;;;1.52;;
39400;SDS011;54391;50.000;7.360;2022-07-06T10:41:55;3.83;;;1.80;;
39400;SDS011;54391;50.000;7.360;2022-07-06T10:44:23;3.83;;;2.35;;
39400;SDS011;54391;50.000;7.360;2022-07-06T10:46:52;2.50;;;1.30;;
39400;SDS011;54391;50.000;7.360;2022-07-06T10:49:21;3.55;;;1.40;;
39400;SDS011;54391;50.000;7.360;2022-07-06T10:51:48;2.00;;;1.30;;
39400;SDS011;54391;50.000;7.360;2022-07-06T10:54:17;5.28;;;1.55;;
39400;SDS011;54391;50.000;7.360;2022-07-06T10:56:47;3.58;;;1.88;;
39400;SDS011;54391;50.000;7.360;2022-07-06T10:59:16;3.15;;;1.10;;
39400;SDS011;54391;50.000;7.360;2022-07-06T11:04:49;3.13;;;1.40;;
39400;SDS011;54391;50.000;7.360;2022-07-06T11:07:17;2.63;;;1.52;;
39400;SDS011;54391;50.000;7.360;2022-07-06T11:09:53;3.15;;;1.33;;
39400;SDS011;54391;50.000;7.360;2022-07-06T11:12:21;5.40;;;1.20;;
39400;SDS011;54391;50.000;7.360;2022-07-06T11:14:50;2.13;;;1.10;;
39400;SDS011;54391;50.000;7.360;2022-07-06T11:17:18;6.45;;;3.35;;
39400;SDS011;54391;50.000;7.360;2022-07-06T11:19:49;2.78;;;1.50;;
39400;SDS011;54391;50.000;7.360;2022-07-06T11:22:21;8.70;;;3.22;;
39400;SDS011;54391;50.000;7.360;2022-07-06T11:24:51;2.17;;;0.80;;
39400;SDS011;54391;50.000;7.360;2022-07-06T11:27:22;3.65;;;0.80;;
39400;SDS011;54391;50.000;7.360;2022-07-06T11:29:49;0.93;;;0.60;;
39400;SDS011;54391;50.000;7.360;2022-07-06T11:32:20;3.72;;;1.10;;
39400;SDS011;54391;50.000;7.360;2022-07-06T11:34:51;3.50;;;0.98;;
39400;SDS011;54391;50.000;7.360;2022-07-06T11:37:19;5.68;;;3.08;;
39400;SDS011;54391;50.000;7.360;2022-07-06T11:39:48;1.27;;;0.88;;
39400;SDS011;54391;50.000;7.360;2022-07-06T11:42:17;1.38;;;0.90;;
39400;SDS011;54391;50.000;7.360;2022-07-06T11:44:45;2.95;;;0.80;;
39400;SDS011;54391;50.000;7.360;2022-07-06T11:47:15;2.25;;;0.90;;
39400;SDS011;54391;50.000;7.360;2022-07-06T11:49:44;4.95;;;1.00;;
39400;SDS011;54391;50.000;7.360;2022-07-06T11:52:17;1.80;;;0.80;;
39400;SDS011;54391;50.000;7.360;2022-07-06T11:54:45;1.15;;;0.70;;
39400;SDS011;54391;50.000;7.360;2022-07-06T11:57:14;2.10;;;0.70;;
39400;SDS011;54391;50.000;7.360;2022-07-06T11:59:43;3.03;;;0.57;;
39400;SDS011;54391;50.000;7.360;2022-07-06T12:02:12;4.40;;;1.30;;
39400;SDS011;54391;50.000;7.360;2022-07-06T12:04:42;3.55;;;0.73;;
39400;SDS011;54391;50.000;7.360;2022-07-06T12:07:11;5.50;;;1.05;;
39400;SDS011;54391;50.000;7.360;2022-07-06T12:09:40;1.98;;;0.60;;
39400;SDS011;54391;50.000;7.360;2022-07-06T12:12:09;3.17;;;0.82;;
39400;SDS011;54391;50.000;7.360;2022-07-06T12:14:39;1.98;;;1.00;;
39400;SDS011;54391;50.000;7.360;2022-07-06T12:17:07;5.63;;;1.50;;
39400;SDS011;54391;50.000;7.360;2022-07-06T12:19:36;1.85;;;0.93;;
39400;SDS011;54391;50.000;7.360;2022-07-06T12:22:04;0.82;;;0.75;;
39400;SDS011;54391;50.000;7.360;2022-07-06T12:24:33;1.60;;;0.80;;
39400;SDS011;54391;50.000;7.360;2022-07-06T12:27:10;1.95;;;0.95;;
39400;SDS011;54391;50.000;7.360;2022-07-06T12:29:40;5.10;;;1.00;;
39400;SDS011;54391;50.000;7.360;2022-07-06T12:32:13;3.53;;;0.75;;
39400;SDS011;54391;50.000;7.360;2022-07-06T12:34:41;4.30;;;0.88;;
39400;SDS011;54391;50.000;7.360;2022-07-06T12:37:09;2.05;;;0.93;;
39400;SDS011;54391;50.000;7.360;2022-07-06T12:39:40;3.40;;;0.90;;
39400;SDS011;54391;50.000;7.360;2022-07-06T12:42:08;4.20;;;0.95;;
39400;SDS011;54391;50.000;7.360;2022-07-06T12:44:43;4.75;;;1.05;;
39400;SDS011;54391;50.000;7.360;2022-07-06T12:47:11;2.67;;;0.77;;
39400;SDS011;54391;50.000;7.360;2022-07-06T12:49:39;3.80;;;1.05;;
39400;SDS011;54391;50.000;7.360;2022-07-06T12:52:09;4.55;;;1.05;;
39400;SDS011;54391;50.000;7.360;2022-07-06T12:54:40;7.65;;;1.25;;
39400;SDS011;54391;50.000;7.360;2022-07-06T12:57:10;1.52;;;0.90;;
39400;SDS011;54391;50.000;7.360;2022-07-06T12:59:40;0.90;;;0.75;;
39400;SDS011;54391;50.000;7.360;2022-07-06T13:02:17;1.70;;;1.00;;
39400;SDS011;54391;50.000;7.360;2022-07-06T13:04:56;2.33;;;0.95;;
39400;SDS011;54391;50.000;7.360;2022-07-06T13:07:28;3.15;;;0.98;;
39400;SDS011;54391;50.000;7.360;2022-07-06T13:09:57;1.80;;;0.80;;
39400;SDS011;54391;50.000;7.360;2022-07-06T13:12:25;3.75;;;1.10;;
39400;SDS011;54391;50.000;7.360;2022-07-06T13:14:54;2.15;;;0.80;;
39400;SDS011;54391;50.000;7.360;2022-07-06T13:17:21;2.17;;;0.70;;
39400;SDS011;54391;50.000;7.360;2022-07-06T13:19:49;1.52;;;0.75;;
39400;SDS011;54391;50.000;7.360;2022-07-06T13:22:16;2.30;;;1.08;;
39400;SDS011;54391;50.000;7.360;2022-07-06T13:24:44;3.67;;;1.00;;
39400;SDS011;54391;50.000;7.360;2022-07-06T13:27:12;3.00;;;1.20;;
39400;SDS011;54391;50.000;7.360;2022-07-06T13:29:39;2.58;;;0.90;;
39400;SDS011;54391;50.000;7.360;2022-07-06T13:32:08;1.60;;;0.80;;
39400;SDS011;54391;50.000;7.360;2022-07-06T13:34:36;3.17;;;1.25;;
39400;SDS011;54391;50.000;7.360;2022-07-06T13:37:04;1.95;;;0.90;;
39400;SDS011;54391;50.000;7.360;2022-07-06T13:39:31;3.13;;;1.13;;
39400;SDS011;54391;50.000;7.360;2022-07-06T13:41:59;4.05;;;1.10;;
39400;SDS011;54391;50.000;7.360;2022-07-06T13:44:28;6.35;;;1.38;;
39400;SDS011;54391;50.000;7.360;2022-07-06T13:46:55;3.42;;;1.58;;
39400;SDS011;54391;50.000;7.360;2022-07-06T13:49:24;3.95;;;1.08;;
39400;SDS011;54391;50.000;7.360;2022-07-06T13:51:52;1.63;;;0.88;;
39400;SDS011;54391;50.000;7.360;2022-07-06T13:54:20;4.10;;;1.08;;
39400;SDS011;54391;50.000;7.360;2022-07-06T13:56:49;1.88;;;1.08;;
39400;SDS011;54391;50.000;7.360;2022-07-06T13:59:16;1.73;;;1.10;;
39400;SDS011;54391;50.000;7.360;2022-07-06T14:01:44;2.05;;;1.00;;
39400;SDS011;54391;50.000;7.360;2022-07-06T14:04:11;7.10;;;0.80;;
39400;SDS011;54391;50.000;7.360;2022-07-06T14:06:41;2.17;;;0.90;;
39400;SDS011;54391;50.000;7.360;2022-07-06T14:09:08;2.15;;;1.00;;
39400;SDS011;54391;50.000;7.360;2022-07-06T14:11:36;1.25;;;1.15;;
39400;SDS011;54391;50.000;7.360;2022-07-06T14:14:03;3.38;;;1.13;;
39400;SDS011;54391;50.000;7.360;2022-07-06T14:16:32;3.30;;;1.00;;
39400;SDS011;54391;50.000;7.360;2022-07-06T14:19:00;2.58;;;1.10;;
39400;SDS011;54391;50.000;7.360;2022-07-06T14:21:28;4.50;;;1.02;;
39400;SDS011;54391;50.000;7.360;2022-07-06T14:23:57;3.33;;;1.10;;
39400;SDS011;54391;50.000;7.360;2022-07-06T14:26:25;1.40;;;0.90;;
39400;SDS011;54391;50.000;7.360;2022-07-06T14:28:52;4.13;;;1.00;;
39400;SDS011;54391;50.000;7.360;2022-07-06T14:31:20;3.08;;;0.95;;
39400;SDS011;54391;50.000;7.360;2022-07-06T14:33:48;3.03;;;1.30;;
39400;SDS011;54391;50.000;7.360;2022-07-06T14:36:15;3.63;;;1.20;;
39400;SDS011;54391;50.000;7.360;2022-07-06T14:38:43;1.95;;;0.90;;
39400;SDS011;54391;50.000;7.360;2022-07-06T14:41:12;2.38;;;1.00;;
39400;SDS011;54391;50.000;7.360;2022-07-06T14:43:40;2.65;;;1.00;;
39400;SDS011;54391;50.000;7.360;2022-07-06T14:46:08;3.42;;;1.30;;
39400;SDS011;54391;50.000;7.360;2022-07-06T14:48:35;4.20;;;1.25;;
39400;SDS011;54391;50.000;7.360;2022-07-06T14:51:03;4.85;;;1.00;;
39400;SDS011;54391;50.000;7.360;2022-07-06T14:53:30;2.65;;;0.80;;
39400;SDS011;54391;50.000;7.360;2022-07-06T14:55:58;1.75;;;0.95;;
39400;SDS011;54391;50.000;7.360;2022-07-06T14:58:27;1.58;;;1.15;;
39400;SDS011;54391;50.000;7.360;2022-07-06T15:00:55;2.08;;;1.17;;